Time;durP1;ratioP1;P1;durP2;ratioP2;P2;SDS_P1;SDS_P2;PMS_P1;PMS_P2;Temp;Humidity;BMP_temperature;BMP_pressure;BME280_temperature;BME280_humidity;BME280_pressure;Samples;Min_cycle;Max_cycle;Signal;HPM_P1;HPM_P2
2022/08/16 00:01:04;;;;;;;;;;;;;;;28.64;39.51;93751.34;4947370;28;7350;-62
2022/08/16 00:03:41;;;;;;;;;;;;;;;28.64;39.40;93756.88;4962437;28;9157;-62
2022/08/16 00:06:21;;;;;;;;;;;;;;;28.63;39.51;93755.38;4952059;28;8967;-62
2022/08/16 00:09:32;;;;;;;;;;;;;;;28.63;39.73;93760.91;4960231;28;7246;-62
2022/08/16 00:12:13;;;;;;;;;;;;;;;28.64;38.87;93762.41;4875614;29;9403;-62
2022/08/16 00:14:49;;;;;;;;;;;;;;;28.64;39.13;93756.13;4875750;29;7081;-62
2022/08/16 00:17:27;;;;;;;;;;;;;;;28.61;39.45;93757.97;4895332;29;7211;-62
2022/08/16 00:19:54;;;;;;;;;;;;;;;28.63;39.65;93760.91;4863889;29;7410;-62
2022/08/16 00:22:51;;;;;;;;;;;;;;;28.63;38.90;93754.63;4903192;29;9774;-62
2022/08/16 00:25:29;;;;;;;;;;;;;;;28.63;39.74;93754.63;4875101;29;9515;-62
2022/08/16 00:28:05;;;;;;;;;;;;;;;28.62;39.63;93753.91;4860736;29;8866;-62
2022/08/16 00:30:32;;;;;;;;;;;;;;;28.61;39.68;93755.19;4876150;29;7283;-62
2022/08/16 00:33:00;;;;;;;;;;;;;;;28.62;39.69;93765.00;4877540;29;7267;-62
2022/08/16 00:35:32;;;;;;;;;;;;;;;28.62;39.82;93770.53;4877091;29;9428;-62
2022/08/16 00:38:13;;;;;;;;;;;;;;;28.62;39.46;93769.78;4862462;29;10169;-62
2022/08/16 00:40:45;;;;;;;;;;;;;;;28.62;39.59;93769.78;4877654;29;8786;-62
2022/08/16 00:43:38;;;;;;;;;;;;;;;28.62;39.37;93769.78;4876846;29;7200;-62
2022/08/16 00:46:32;;;;;;;;;;;;;;;28.59;39.60;93766.06;4877359;29;8354;-62
2022/08/16 00:49:00;;;;;;;;;;;;;;;28.58;38.90;93767.34;4941321;28;7242;-62
2022/08/16 00:51:38;;;;;;;;;;;;;;;28.58;39.47;93775.66;4975300;28;7233;-62
2022/08/16 00:54:05;;;;;;;;;;;;;;;28.59;39.92;93763.31;4992219;28;9043;-62
2022/08/16 00:56:36;;;;;;;;;;;;;;;28.57;39.60;93762.34;4990361;28;7112;-62
2022/08/16 00:59:08;;;;;;;;;;;;;;;28.57;39.22;93765.88;4975210;28;7296;-62
2022/08/16 01:01:34;;;;;;;;;;;;;;;28.57;39.38;93767.88;5014027;28;9154;-62
2022/08/16 01:04:27;;;;;;;;;;;;;;;28.56;39.56;93771.94;5041468;28;8617;-62
2022/08/16 01:07:12;;;;;;;;;;;;;;;28.57;39.46;93770.63;4987709;28;9399;-62
2022/08/16 01:09:40;;;;;;;;;;;;;;;28.56;39.47;93772.66;4988365;28;9103;-62
2022/08/16 01:12:10;;;;;;;;;;;;;;;28.56;39.46;93775.41;4987178;28;9173;-62
2022/08/16 01:14:54;;;;;;;;;;;;;;;28.57;38.84;93778.94;4963682;28;7291;-62
2022/08/16 01:17:32;;;;;;;;;;;;;;;28.58;39.14;93777.69;4970528;28;9154;-62
2022/08/16 01:20:10;;;;;;;;;;;;;;;28.55;39.21;93771.19;4985837;28;7800;-63
2022/08/16 01:23:00;;;;;;;;;;;;;;;28.56;39.38;93771.94;4964387;28;7403;-62
2022/08/16 01:25:41;;;;;;;;;;;;;;;28.54;39.41;93768.94;4972495;28;9257;-62
2022/08/16 01:28:12;;;;;;;;;;;;;;;28.55;39.01;93771.19;4986344;28;8563;-62
2022/08/16 01:30:43;;;;;;;;;;;;;;;28.55;39.58;93775.97;4987462;28;9067;-62
2022/08/16 01:33:09;;;;;;;;;;;;;;;28.55;39.09;93775.97;4986264;28;7225;-62
2022/08/16 01:36:04;;;;;;;;;;;;;;;28.56;39.14;93769.16;4986800;28;9433;-62
2022/08/16 01:38:35;;;;;;;;;;;;;;;28.55;39.77;93773.94;4985564;28;9774;-62
2022/08/16 01:41:15;;;;;;;;;;;;;;;28.56;39.39;93771.94;4972749;28;9529;-62
2022/08/16 01:43:46;;;;;;;;;;;;;;;28.54;39.09;93769.69;5010535;28;6978;-62
2022/08/16 01:46:38;;;;;;;;;;;;;;;28.55;39.38;93762.88;5022787;28;7005;-62
2022/08/16 01:49:26;;;;;;;;;;;;;;;28.55;39.22;93753.84;5029113;28;7392;-62
2022/08/16 01:51:58;;;;;;;;;;;;;;;28.54;38.86;93758.63;5021435;28;9150;-62
2022/08/16 01:54:24;;;;;;;;;;;;;;;28.53;39.23;93746.09;5030722;28;7327;-62
2022/08/16 01:56:50;;;;;;;;;;;;;;;28.54;38.63;93755.13;5035505;28;7498;-62
2022/08/16 01:59:17;;;;;;;;;;;;;;;28.53;38.97;93751.63;5037035;28;8740;-62
2022/08/16 02:01:45;;;;;;;;;;;;;;;28.55;38.99;93748.31;5026181;28;8881;-62
2022/08/16 02:04:11;;;;;;;;;;;;;;;28.53;39.29;93748.84;5035992;28;8778;-62
2022/08/16 02:06:41;;;;;;;;;;;;;;;28.53;39.39;93751.63;5019327;28;9140;-62
2022/08/16 02:09:11;;;;;;;;;;;;;;;28.54;39.31;93744.78;5035057;28;9806;-62
2022/08/16 02:11:40;;;;;;;;;;;;;;;28.52;39.42;93739.06;5035844;28;7206;-63
2022/08/16 02:14:06;;;;;;;;;;;;;;;28.52;39.01;93739.06;5034828;28;7233;-62
2022/08/16 02:16:32;;;;;;;;;;;;;;;28.52;38.88;93739.06;5035313;28;8435;-62
2022/08/16 02:19:01;;;;;;;;;;;;;;;28.52;39.37;93739.06;5035175;28;7257;-62
2022/08/16 02:21:29;;;;;;;;;;;;;;;28.52;39.06;93736.31;5017785;28;7131;-63
2022/08/16 02:23:56;;;;;;;;;;;;;;;28.53;39.24;93735.03;5032249;28;6990;-62
2022/08/16 02:26:22;;;;;;;;;;;;;;;28.52;38.93;93733.53;5034479;28;7305;-62
2022/08/16 02:28:48;;;;;;;;;;;;;;;28.50;38.95;93738.13;5033084;28;7204;-62
2022/08/16 02:31:14;;;;;;;;;;;;;;;28.51;39.19;93737.59;5034609;28;7257;-62
2022/08/16 02:33:43;;;;;;;;;;;;;;;28.50;39.11;93736.09;5017327;28;7320;-62
2022/08/16 02:36:11;;;;;;;;;;;;;;;28.47;39.68;93739.94;5035530;28;8915;-62
2022/08/16 02:38:39;;;;;;;;;;;;;;;28.45;39.23;93739.03;5016322;28;7224;-62
2022/08/16 02:41:08;;;;;;;;;;;;;;;28.41;39.20;93722.78;5016711;28;8738;-62
2022/08/16 02:43:38;;;;;;;;;;;;;;;28.44;39.45;93727.22;5015581;28;7342;-62
2022/08/16 02:46:06;;;;;;;;;;;;;;;28.44;39.31;93720.94;5033891;28;7266;-62
2022/08/16 02:48:33;;;;;;;;;;;;;;;28.45;38.93;93716.91;5017572;28;7004;-63
2022/08/16 02:51:04;;;;;;;;;;;;;;;28.45;39.13;93717.63;5024196;28;7066;-62
2022/08/16 02:53:33;;;;;;;;;;;;;;;28.44;39.04;93720.94;5016769;28;7270;-62
2022/08/16 02:55:59;;;;;;;;;;;;;;;28.44;39.27;93713.41;5023370;28;7219;-62
2022/08/16 02:58:25;;;;;;;;;;;;;;;28.44;39.17;93716.16;5024401;28;9001;-62
2022/08/16 03:00:56;;;;;;;;;;;;;;;28.44;39.62;93712.66;5016775;28;7382;-62
2022/08/16 03:03:23;;;;;;;;;;;;;;;28.44;39.16;93710.63;5034449;28;9047;-62
2022/08/16 03:05:52;;;;;;;;;;;;;;;28.44;39.06;93715.41;5017013;28;7273;-62
2022/08/16 03:08:21;;;;;;;;;;;;;;;28.43;39.22;93709.13;5034416;28;9007;-62
2022/08/16 03:10:48;;;;;;;;;;;;;;;28.44;39.30;93705.09;5015817;28;9563;-62
2022/08/16 03:13:16;;;;;;;;;;;;;;;28.44;39.39;93705.09;5017279;28;7163;-62
2022/08/16 03:15:44;;;;;;;;;;;;;;;28.45;39.10;93695.50;5016359;28;6900;-62
2022/08/16 03:18:10;;;;;;;;;;;;;;;28.44;39.17;93694.03;5018192;28;7270;-62
2022/08/16 03:20:41;;;;;;;;;;;;;;;28.45;38.96;93692.72;5016114;28;9338;-62
2022/08/16 03:23:08;;;;;;;;;;;;;;;28.43;39.05;93689.78;5014398;28;7213;-62
2022/08/16 03:25:36;;;;;;;;;;;;;;;28.44;39.03;93691.28;5033998;28;7074;-62
2022/08/16 03:28:05;;;;;;;;;;;;;;;28.44;39.09;93693.28;5016582;28;8777;-62
2022/08/16 03:30:34;;;;;;;;;;;;;;;28.44;39.07;93699.56;5016001;28;9432;-62
2022/08/16 03:33:03;;;;;;;;;;;;;;;28.44;38.86;93693.28;5026620;28;9045;-62
2022/08/16 03:35:33;;;;;;;;;;;;;;;28.43;38.45;93692.53;5022970;28;7163;-62
2022/08/16 03:38:02;;;;;;;;;;;;;;;28.40;39.07;93693.66;5031786;28;6867;-62
2022/08/16 03:40:36;;;;;;;;;;;;;;;28.44;38.61;93688.50;5021484;28;7536;-62
2022/08/16 03:43:09;;;;;;;;;;;;;;;28.41;38.90;93684.06;5021323;28;7238;-62
2022/08/16 03:45:40;;;;;;;;;;;;;;;28.40;39.02;93687.38;5039829;28;8642;-62
2022/08/16 03:48:43;;;;;;;;;;;;;;;28.40;39.13;93690.88;5021947;28;9461;-62
2022/08/16 03:51:17;;;;;;;;;;;;;;;28.40;38.89;93690.13;5023930;28;9096;-62
2022/08/16 03:53:43;;;;;;;;;;;;;;;28.38;38.43;93692.72;5025554;28;8771;-62
2022/08/16 03:56:12;;;;;;;;;;;;;;;28.39;39.17;93692.16;5028114;28;7257;-62
2022/08/16 03:58:43;;;;;;;;;;;;;;;28.39;39.04;93697.69;5022130;28;6954;-62
2022/08/16 04:01:09;;;;;;;;;;;;;;;28.37;38.96;93694.72;5028126;28;9061;-62
2022/08/16 04:03:49;;;;;;;;;;;;;;;28.38;39.16;93696.22;5042653;28;7199;-62
2022/08/16 04:06:23;;;;;;;;;;;;;;;28.38;38.89;93690.69;5026133;28;7184;-62
2022/08/16 04:08:59;;;;;;;;;;;;;;;28.38;38.94;93691.41;5026260;28;7290;-62
2022/08/16 04:11:34;;;;;;;;;;;;;;;28.38;38.80;93693.47;5023627;28;7224;-62
2022/08/16 04:14:10;;;;;;;;;;;;;;;28.38;38.89;93684.41;5024066;28;9387;-62
2022/08/16 04:16:48;;;;;;;;;;;;;;;28.35;38.89;93692.53;5041100;28;9031;-62
2022/08/16 04:19:15;;;;;;;;;;;;;;;28.32;38.97;93681.78;5028761;28;7634;-62
2022/08/16 04:21:43;;;;;;;;;;;;;;;28.32;39.07;93681.78;5032013;28;9013;-62
2022/08/16 04:24:21;;;;;;;;;;;;;;;28.33;39.18;93686.06;5028170;28;8963;-62
2022/08/16 04:26:49;;;;;;;;;;;;;;;28.32;39.04;93673.50;5030800;28;9446;-62
2022/08/16 04:29:26;;;;;;;;;;;;;;;28.31;39.13;93681.06;5022650;28;9046;-62
2022/08/16 04:31:59;;;;;;;;;;;;;;;28.29;39.10;93686.41;5040415;28;8943;-62
2022/08/16 04:34:41;;;;;;;;;;;;;;;28.29;38.78;93682.91;5031098;28;9207;-62
2022/08/16 04:37:56;;;;;;;;;;;;;;;28.30;38.91;93687.88;5025325;28;9066;-62
2022/08/16 04:40:27;;;;;;;;;;;;;;;28.29;38.68;93686.41;5027099;28;7182;-62
2022/08/16 04:42:54;;;;;;;;;;;;;;;28.29;39.23;93689.19;5039508;28;8990;-62
2022/08/16 04:45:33;;;;;;;;;;;;;;;28.30;39.32;93689.91;5032550;28;7732;-62
2022/08/16 04:48:06;;;;;;;;;;;;;;;28.27;39.08;93688.97;5028677;28;7380;-62
2022/08/16 04:50:43;;;;;;;;;;;;;;;28.28;39.10;93684.16;5021764;28;7230;-62
2022/08/16 04:53:13;;;;;;;;;;;;;;;28.29;39.19;93689.19;5025405;28;7060;-63
2022/08/16 04:55:39;;;;;;;;;;;;;;;28.27;38.87;93691.72;5025664;28;9123;-62
2022/08/16 04:58:07;;;;;;;;;;;;;;;28.27;38.52;93696.53;5031906;28;7224;-63
2022/08/16 05:00:36;;;;;;;;;;;;;;;28.27;39.16;93685.47;5040633;28;7366;-63
2022/08/16 05:03:12;;;;;;;;;;;;;;;28.25;38.71;93688.75;5038878;28;7635;-63
2022/08/16 05:05:49;;;;;;;;;;;;;;;28.25;39.07;93699.09;5023891;28;7196;-62
2022/08/16 05:08:17;;;;;;;;;;;;;;;28.24;38.93;93698.38;5022101;28;6889;-62
2022/08/16 05:10:45;;;;;;;;;;;;;;;28.25;38.72;93702.59;5017599;28;9260;-62
2022/08/16 05:13:16;;;;;;;;;;;;;;;28.22;39.29;93706.47;5018212;28;7361;-62
2022/08/16 05:15:42;;;;;;;;;;;;;;;28.23;38.88;93707.94;5027891;28;8832;-62
2022/08/16 05:18:10;;;;;;;;;;;;;;;28.24;39.13;93703.16;5018471;28;7348;-62
2022/08/16 05:20:36;;;;;;;;;;;;;;;28.24;39.00;93706.66;5025954;28;9058;-62
2022/08/16 05:23:02;;;;;;;;;;;;;;;28.24;38.83;93700.38;5036941;28;7298;-62
2022/08/16 05:25:29;;;;;;;;;;;;;;;28.23;39.13;93701.69;5026398;28;7366;-62
2022/08/16 05:27:58;;;;;;;;;;;;;;;28.22;38.97;93700.94;5037378;28;7119;-62
2022/08/16 05:30:26;;;;;;;;;;;;;;;28.23;39.51;93704.44;5020525;28;8931;-62
2022/08/16 05:32:52;;;;;;;;;;;;;;;28.22;39.10;93700.94;5018737;28;8897;-62
2022/08/16 05:35:20;;;;;;;;;;;;;;;28.22;39.14;93708.47;5021088;28;7235;-62
2022/08/16 05:37:46;;;;;;;;;;;;;;;28.20;39.00;93716.59;5020548;28;7100;-62
2022/08/16 05:40:34;;;;;;;;;;;;;;;28.20;39.08;93711.81;5041110;28;6974;-61
2022/08/16 05:43:20;;;;;;;;;;;;;;;28.19;39.10;93709.56;5024024;28;9305;-62
2022/08/16 05:45:54;;;;;;;;;;;;;;;28.17;39.12;93706.59;5043700;28;7161;-62
2022/08/16 05:48:38;;;;;;;;;;;;;;;28.17;39.28;93701.81;5041635;28;9054;-62
2022/08/16 05:51:05;;;;;;;;;;;;;;;28.19;39.37;93706.78;5027730;28;7048;-62
2022/08/16 05:53:31;;;;;;;;;;;;;;;28.19;39.02;93699.25;5031574;28;7193;-62
2022/08/16 05:55:57;;;;;;;;;;;;;;;28.21;38.91;93707.75;5042075;28;6985;-62
2022/08/16 05:58:23;;;;;;;;;;;;;;;28.20;38.66;93709.03;5026464;28;8814;-62
2022/08/16 06:00:49;;;;;;;;;;;;;;;28.18;39.24;93705.34;5038564;28;7218;-62
2022/08/16 06:03:18;;;;;;;;;;;;;;;28.19;39.06;93704.03;5052369;28;8735;-62
2022/08/16 06:05:52;;;;;;;;;;;;;;;28.16;40.46;93702.38;5040161;28;7142;-63
2022/08/16 06:08:18;;;;;;;;;;;;;;;28.15;39.42;93707.16;5044595;28;7280;-62
2022/08/16 06:10:44;;;;;;;;;;;;;;;28.16;38.94;93710.66;5041241;28;7281;-62
2022/08/16 06:13:30;;;;;;;;;;;;;;;28.16;39.28;93702.38;5043334;28;7235;-62
2022/08/16 06:16:03;;;;;;;;;;;;;;;28.13;39.27;93700.69;5027218;28;7200;-62
2022/08/16 06:19:07;;;;;;;;;;;;;;;28.12;39.56;93699.22;5042205;28;7200;-62
2022/08/16 06:21:47;;;;;;;;;;;;;;;28.12;39.18;93690.91;5002243;28;9064;-62
2022/08/16 06:24:24;;;;;;;;;;;;;;;28.12;39.17;93699.22;4995432;28;7273;-62
2022/08/16 06:27:33;;;;;;;;;;;;;;;28.09;39.35;93689.97;4990004;28;7204;-62
2022/08/16 06:30:01;;;;;;;;;;;;;;;28.09;39.00;93692.00;4988861;28;9065;-62
2022/08/16 06:32:28;;;;;;;;;;;;;;;28.06;39.58;93693.06;4979545;28;9037;-62
2022/08/16 06:35:05;;;;;;;;;;;;;;;28.05;40.18;93702.66;4982448;28;7394;-62
2022/08/16 06:37:50;;;;;;;;;;;;;;;28.06;39.89;93704.88;4958185;28;8791;-61
2022/08/16 06:40:30;;;;;;;;;;;;;;;28.05;39.92;93710.97;4999349;28;6852;-61
2022/08/16 06:42:58;;;;;;;;;;;;;;;28.06;39.75;93715.94;4994164;28;7301;-62
2022/08/16 06:45:36;;;;;;;;;;;;;;;28.05;39.50;93711.72;4976769;28;7263;-62
2022/08/16 06:48:06;;;;;;;;;;;;;;;28.03;39.75;93708.00;4974560;28;7191;-62
2022/08/16 06:50:34;;;;;;;;;;;;;;;28.06;39.93;93709.66;4998514;28;9085;-62
2022/08/16 06:53:11;;;;;;;;;;;;;;;28.07;39.95;93713.91;4991387;28;7247;-62
2022/08/16 06:55:37;;;;;;;;;;;;;;;28.07;39.83;93713.91;5027276;28;7204;-62
2022/08/16 06:58:05;;;;;;;;;;;;;;;28.04;40.61;93710.22;5048988;28;7000;-62
2022/08/16 07:00:33;;;;;;;;;;;;;;;28.05;40.83;93714.47;5057994;28;7068;-62
2022/08/16 07:03:12;;;;;;;;;;;;;;;28.05;40.72;93719.25;5043929;28;7651;-62
2022/08/16 07:05:48;;;;;;;;;;;;;;;28.05;41.15;93727.56;5040245;28;9095;-62
2022/08/16 07:08:14;;;;;;;;;;;;;;;28.06;41.15;93717.97;5041293;28;7263;-63
2022/08/16 07:10:40;;;;;;;;;;;;;;;28.05;40.96;93713.72;5038119;28;9090;-62
2022/08/16 07:13:06;;;;;;;;;;;;;;;28.06;41.02;93715.94;5033955;28;8999;-62
2022/08/16 07:15:33;;;;;;;;;;;;;;;28.07;41.10;93716.69;5035520;28;9029;-63
2022/08/16 07:18:00;;;;;;;;;;;;;;;28.07;41.00;93717.44;5035217;28;9092;-62
2022/08/16 07:20:26;;;;;;;;;;;;;;;28.08;41.18;93709.84;5052722;28;7304;-62
2022/08/16 07:22:54;;;;;;;;;;;;;;;28.07;40.98;93711.91;5045059;28;7254;-62
2022/08/16 07:25:21;;;;;;;;;;;;;;;28.08;41.06;93718.91;5033936;28;7001;-64
2022/08/16 07:27:50;;;;;;;;;;;;;;;28.07;40.87;93722.22;5050924;28;7268;-63
2022/08/16 07:30:18;;;;;;;;;;;;;;;28.09;40.75;93719.66;5059242;28;8749;-64
2022/08/16 07:32:48;;;;;;;;;;;;;;;28.09;40.95;93725.19;5046531;28;7063;-63
2022/08/16 07:35:31;;;;;;;;;;;;;;;28.08;40.72;93723.69;5041264;28;9135;-61
2022/08/16 07:38:07;;;;;;;;;;;;;;;28.08;40.75;93727.19;5026959;28;7274;-60
2022/08/16 07:40:51;;;;;;;;;;;;;;;28.08;40.92;93731.97;5058133;28;7267;-60
2022/08/16 07:43:21;;;;;;;;;;;;;;;28.09;41.09;93736.97;5047992;28;7602;-62
2022/08/16 07:45:49;;;;;;;;;;;;;;;28.10;40.50;93741.22;5042238;28;7402;-62
2022/08/16 07:48:21;;;;;;;;;;;;;;;28.12;41.41;93743.44;5052859;28;7437;-62
2022/08/16 07:50:57;;;;;;;;;;;;;;;28.12;40.94;93743.44;5058583;28;7266;-62
2022/08/16 07:53:50;;;;;;;;;;;;;;;28.11;41.31;93739.19;5042897;28;8581;-63
2022/08/16 07:56:19;;;;;;;;;;;;;;;28.13;40.59;93745.66;5056198;28;7126;-63
2022/08/16 07:58:45;;;;;;;;;;;;;;;28.13;40.76;93747.69;5053431;28;9110;-62
2022/08/16 08:01:14;;;;;;;;;;;;;;;28.13;40.99;93748.44;5047887;28;7268;-62
2022/08/16 08:03:42;;;;;;;;;;;;;;;28.12;41.01;93748.97;5057985;28;9456;-63
2022/08/16 08:06:12;;;;;;;;;;;;;;;28.16;40.88;93752.16;5057950;28;7462;-63
2022/08/16 08:08:46;;;;;;;;;;;;;;;28.16;40.91;93760.44;5040488;28;7027;-62
2022/08/16 08:11:16;;;;;;;;;;;;;;;28.16;40.94;93761.19;5037151;28;9122;-62
2022/08/16 08:13:46;;;;;;;;;;;;;;;28.17;40.77;93757.13;5044292;28;7440;-63
2022/08/16 08:16:50;;;;;;;;;;;;;;;28.18;40.93;93757.88;5055639;28;7050;-63
2022/08/16 08:19:19;;;;;;;;;;;;;;;28.18;40.66;93755.84;4966251;28;9058;-62
2022/08/16 08:22:05;;;;;;;;;;;;;;;28.18;40.89;93758.63;4947915;28;7032;-62
2022/08/16 08:24:40;;;;;;;;;;;;;;;28.17;41.17;93753.59;4952482;28;7416;-63
2022/08/16 08:27:07;;;;;;;;;;;;;;;28.16;41.00;93754.91;4950028;28;9185;-62
2022/08/16 08:29:38;;;;;;;;;;;;;;;28.17;40.94;93764.66;4946703;28;7984;-62
2022/08/16 08:32:11;;;;;;;;;;;;;;;28.19;40.69;93764.88;4945160;28;7005;-62
2022/08/16 08:34:37;;;;;;;;;;;;;;;28.17;40.57;93764.66;4962094;28;7118;-62
2022/08/16 08:37:05;;;;;;;;;;;;;;;28.19;40.68;93768.38;4959776;28;7209;-63
2022/08/16 08:39:33;;;;;;;;;;;;;;;28.19;40.66;93764.88;4965420;28;9042;-62
2022/08/16 08:42:01;;;;;;;;;;;;;;;28.19;40.59;93765.63;4965749;28;7244;-62
2022/08/16 08:44:30;;;;;;;;;;;;;;;28.21;40.67;93765.06;4949405;28;7058;-62
2022/08/16 08:47:01;;;;;;;;;;;;;;;28.21;40.58;93767.81;4950624;28;7067;-62
2022/08/16 08:49:30;;;;;;;;;;;;;;;28.22;40.46;93769.31;4964688;28;7001;-62
2022/08/16 08:51:57;;;;;;;;;;;;;;;28.21;40.60;93765.81;4969500;28;7026;-63
2022/08/16 08:54:25;;;;;;;;;;;;;;;28.22;40.52;93772.84;5036330;28;9669;-63
2022/08/16 08:56:52;;;;;;;;;;;;;;;28.24;40.65;93773.03;5038060;28;9737;-63
2022/08/16 08:59:19;;;;;;;;;;;;;;;28.25;40.87;93776.53;5036456;28;7074;-63
2022/08/16 09:01:50;;;;;;;;;;;;;;;28.24;40.32;93775.03;5038909;28;7197;-63
2022/08/16 09:04:19;;;;;;;;;;;;;;;28.22;40.43;93770.06;5046470;28;7054;-63
2022/08/16 09:06:53;;;;;;;;;;;;;;;28.25;40.76;93773.78;5045886;28;8857;-63
2022/08/16 09:09:25;;;;;;;;;;;;;;;28.26;40.49;93772.47;5045909;28;9038;-63
2022/08/16 09:11:51;;;;;;;;;;;;;;;28.26;40.41;93772.47;5023440;28;9215;-63
2022/08/16 09:14:18;;;;;;;;;;;;;;;28.26;40.47;93772.47;5053426;28;9088;-63
2022/08/16 09:16:44;;;;;;;;;;;;;;;28.27;40.64;93779.50;5062764;28;7127;-63
2022/08/16 09:19:11;;;;;;;;;;;;;;;28.27;40.53;93768.44;5042880;28;7162;-63
2022/08/16 09:21:39;;;;;;;;;;;;;;;28.25;40.68;93768.25;5046265;28;7018;-63
2022/08/16 09:24:23;;;;;;;;;;;;;;;28.29;40.54;93777.69;5055759;28;7219;-63
2022/08/16 09:26:49;;;;;;;;;;;;;;;28.31;40.24;93766.06;5061930;28;9504;-63
2022/08/16 09:29:16;;;;;;;;;;;;;;;28.31;40.47;93768.84;5061858;28;7227;-63
2022/08/16 09:31:54;;;;;;;;;;;;;;;28.32;40.60;93771.03;5046694;28;9042;-63
2022/08/16 09:34:25;;;;;;;;;;;;;;;28.34;40.51;93770.50;5060104;28;6972;-63
2022/08/16 09:36:51;;;;;;;;;;;;;;;28.34;40.26;93774.00;5042265;28;9129;-63
2022/08/16 09:39:24;;;;;;;;;;;;;;;28.36;40.10;93771.44;5045031;28;7479;-63
2022/08/16 09:42:22;;;;;;;;;;;;;;;28.38;40.30;93767.41;5061987;28;7311;-63
2022/08/16 09:44:48;;;;;;;;;;;;;;;28.38;40.07;93768.16;5044534;28;7055;-63
2022/08/16 09:47:41;;;;;;;;;;;;;;;28.40;39.70;93771.09;5052238;28;9122;-64
2022/08/16 09:50:21;;;;;;;;;;;;;;;28.40;39.78;93776.63;4952363;28;7086;-63
2022/08/16 09:52:49;;;;;;;;;;;;;;;28.41;39.62;93775.34;4953235;28;7092;-63
2022/08/16 09:55:27;;;;;;;;;;;;;;;28.40;39.47;93765.56;4951313;28;7003;-63
2022/08/16 09:57:53;;;;;;;;;;;;;;;28.43;39.88;93764.47;4953030;28;9089;-63
2022/08/16 10:00:23;;;;;;;;;;;;;;;28.45;39.47;93769.47;4971023;28;7670;-62
2022/08/16 10:02:51;;;;;;;;;;;;;;;28.46;39.37;93773.69;4952413;28;8991;-63
2022/08/16 10:05:40;;;;;;;;;;;;;;;28.46;38.99;93768.91;4953110;28;7352;-63
2022/08/16 10:08:18;;;;;;;;;;;;;;;28.47;39.24;93775.91;4948947;28;7395;-63
2022/08/16 10:14:15;;;;;;;;;;;;;;;28.50;39.39;93783.13;4893433;29;7249;-63
2022/08/16 10:16:50;;;;;;;;;;;;;;;28.51;39.33;93778.34;4877952;29;9391;-63
2022/08/16 10:19:32;;;;;;;;;;;;;;;28.52;38.94;93782.59;4877427;29;7137;-63
2022/08/16 10:22:10;;;;;;;;;;;;;;;28.52;39.32;93783.34;4876855;29;7928;-62
2022/08/16 10:24:40;;;;;;;;;;;;;;;28.52;39.16;93786.09;4876510;29;7221;-63
2022/08/16 10:27:19;;;;;;;;;;;;;;;28.54;38.78;93786.28;4918844;28;7185;-63
2022/08/16 10:29:52;;;;;;;;;;;;;;;28.57;39.19;93784.47;4953416;28;7042;-62
2022/08/16 10:32:28;;;;;;;;;;;;;;;28.57;39.84;93784.47;4954654;28;7224;-63
2022/08/16 10:34:54;;;;;;;;;;;;;;;28.56;39.28;93783.72;4964742;28;7648;-62
2022/08/16 10:37:20;;;;;;;;;;;;;;;28.56;38.60;93772.66;4929864;28;9111;-62
2022/08/16 10:39:46;;;;;;;;;;;;;;;28.56;38.84;93778.19;4964120;28;8837;-62
2022/08/16 10:42:12;;;;;;;;;;;;;;;28.57;38.45;93779.72;4966728;28;7287;-62
2022/08/16 10:44:41;;;;;;;;;;;;;;;28.58;38.38;93780.47;4969819;28;6978;-62
2022/08/16 10:47:10;;;;;;;;;;;;;;;28.59;38.04;93777.13;4987114;28;9243;-62
2022/08/16 10:49:40;;;;;;;;;;;;;;;28.59;38.35;93768.84;5048774;28;7272;-63
2022/08/16 10:52:12;;;;;;;;;;;;;;;28.60;38.98;93769.59;5025055;28;9461;-63
2022/08/16 10:54:44;;;;;;;;;;;;;;;28.61;37.49;93769.03;5039729;28;7158;-62
2022/08/16 10:57:13;;;;;;;;;;;;;;;28.64;38.14;93775.50;5047757;28;7107;-62
2022/08/16 10:59:42;;;;;;;;;;;;;;;28.66;37.78;93770.16;5040885;28;7062;-62
2022/08/16 11:02:09;;;;;;;;;;;;;;;28.66;37.93;93772.94;5039957;28;7658;-63
2022/08/16 11:04:48;;;;;;;;;;;;;;;28.65;37.26;93774.94;5059848;28;7459;-63
2022/08/16 11:07:15;;;;;;;;;;;;;;;28.67;36.88;93772.38;5044055;28;8267;-63
2022/08/16 11:09:43;;;;;;;;;;;;;;;28.69;37.05;93775.34;5039418;28;7091;-62
2022/08/16 11:12:40;;;;;;;;;;;;;;;28.70;38.22;93773.31;5061814;28;9124;-63
2022/08/16 11:15:12;;;;;;;;;;;;;;;28.70;36.88;93776.81;5053024;28;7030;-62
2022/08/16 11:17:40;;;;;;;;;;;;;;;28.70;36.54;93770.53;5038756;28;7035;-62
2022/08/16 11:20:12;;;;;;;;;;;;;;;28.76;37.48;93774.63;5036538;28;7267;-62
2022/08/16 11:22:42;;;;;;;;;;;;;;;28.82;37.19;93775.22;5037486;28;7450;-63
2022/08/16 11:25:12;;;;;;;;;;;;;;;28.85;37.66;93771.38;5035562;28;7228;-62
2022/08/16 11:27:38;;;;;;;;;;;;;;;28.87;37.48;93770.81;5053898;28;7231;-63
2022/08/16 11:30:08;;;;;;;;;;;;;;;28.90;37.38;93778.03;5033888;28;7324;-63
2022/08/16 11:32:39;;;;;;;;;;;;;;;28.92;37.71;93776.19;5034655;28;7274;-62
2022/08/16 11:35:09;;;;;;;;;;;;;;;28.92;37.67;93770.66;5033293;28;7274;-63
2022/08/16 11:37:36;;;;;;;;;;;;;;;28.91;37.28;93773.94;5035237;28;7347;-62
2022/08/16 11:40:07;;;;;;;;;;;;;;;28.88;37.66;93761.94;5031295;28;9637;-62
2022/08/16 11:42:34;;;;;;;;;;;;;;;28.86;37.07;93770.06;5058526;28;7077;-62
2022/08/16 11:45:04;;;;;;;;;;;;;;;28.87;37.18;93773.56;5032562;28;9784;-62
2022/08/16 11:47:31;;;;;;;;;;;;;;;28.86;36.18;93766.56;5040239;28;9741;-62
2022/08/16 11:50:06;;;;;;;;;;;;;;;28.91;36.45;93769.16;5043673;28;7052;-63
2022/08/16 11:52:42;;;;;;;;;;;;;;;28.93;36.28;93768.59;5057237;28;8609;-62
2022/08/16 11:55:27;;;;;;;;;;;;;;;28.94;36.30;93765.31;5063383;28;9051;-62
2022/08/16 11:57:54;;;;;;;;;;;;;;;28.97;36.43;93766.25;5052511;28;9079;-62
2022/08/16 12:00:19;;;;;;;;;;;;;;;29.00;36.54;93765.13;5040679;28;7461;-62
2022/08/16 12:02:45;;;;;;;;;;;;;;;28.99;36.32;93764.38;5051003;28;7099;-61
2022/08/16 12:05:14;;;;;;;;;;;;;;;29.03;36.47;93756.50;5056498;28;7269;-61
2022/08/16 12:07:44;;;;;;;;;;;;;;;29.05;36.61;93767.00;5034447;28;7066;-62
2022/08/16 12:10:18;;;;;;;;;;;;;;;29.04;36.14;93754.44;5053637;28;9019;-62
2022/08/16 12:12:45;;;;;;;;;;;;;;;29.06;35.71;93757.41;5035145;28;7264;-62
2022/08/16 12:15:13;;;;;;;;;;;;;;;29.09;35.52;93759.06;5041207;28;7233;-62
2022/08/16 12:17:42;;;;;;;;;;;;;;;29.11;36.45;93750.97;5042659;28;9516;-62
2022/08/16 12:20:12;;;;;;;;;;;;;;;29.15;36.32;93756.13;5053869;28;7150;-62
2022/08/16 12:22:39;;;;;;;;;;;;;;;29.16;36.11;93750.09;5053042;28;7236;-62
2022/08/16 12:25:10;;;;;;;;;;;;;;;29.19;35.84;93756.56;5039060;28;7435;-62
2022/08/16 12:28:08;;;;;;;;;;;;;;;29.18;35.93;93747.50;5042562;28;7242;-62
2022/08/16 12:30:45;;;;;;;;;;;;;;;29.17;36.41;93756.38;4967795;28;7033;-62
2022/08/16 12:33:56;;;;;;;;;;;;;;;29.18;35.77;93752.31;4973942;28;9071;-62
2022/08/16 12:36:41;;;;;;;;;;;;;;;29.21;35.50;93760.25;4950024;28;7269;-62
2022/08/16 12:39:08;;;;;;;;;;;;;;;29.20;34.68;93747.69;4943329;28;9107;-62
2022/08/16 12:41:36;;;;;;;;;;;;;;;29.25;34.76;93751.59;4944991;28;9423;-62
2022/08/16 12:44:21;;;;;;;;;;;;;;;29.27;35.05;93746.97;4959357;28;9326;-62
2022/08/16 12:50:04;;;;;;;;;;;;;;;29.32;35.50;93734.97;4912848;29;9325;-61
2022/08/16 12:52:44;;;;;;;;;;;;;;;29.35;34.68;93741.44;4913723;29;8755;-61
2022/08/16 12:55:22;;;;;;;;;;;;;;;29.37;35.04;93730.53;4915038;29;8817;-62
2022/08/16 12:57:53;;;;;;;;;;;;;;;29.42;34.67;93735.94;4913351;29;7272;-62
2022/08/16 13:00:20;;;;;;;;;;;;;;;29.47;34.53;93734.28;4913212;29;9702;-62
2022/08/16 13:02:47;;;;;;;;;;;;;;;29.45;33.84;93729.25;4914911;29;7377;-62
2022/08/16 13:05:15;;;;;;;;;;;;;;;29.49;34.35;93729.63;4914878;29;7814;-62
2022/08/16 13:07:46;;;;;;;;;;;;;;;29.52;33.35;93731.31;4934787;28;7006;-62
2022/08/16 13:10:21;;;;;;;;;;;;;;;29.50;34.82;93722.81;4952558;28;7306;-61
2022/08/16 13:13:27;;;;;;;;;;;;;;;29.50;36.34;93728.34;4945778;28;8774;-62
2022/08/16 13:15:57;;;;;;;;;;;;;;;29.47;36.45;93717.66;4914858;29;9110;-62
2022/08/16 13:18:34;;;;;;;;;;;;;;;29.45;36.76;93731.31;4909114;29;7300;-62
2022/08/16 13:21:33;;;;;;;;;;;;;;;29.42;36.51;93727.63;4916056;29;7406;-62
2022/08/16 13:24:09;;;;;;;;;;;;;;;29.42;36.33;93732.41;4874541;29;7624;-62
2022/08/16 13:27:06;;;;;;;;;;;;;;;29.42;36.36;93727.63;4880229;29;9045;-62
2022/08/16 13:29:34;;;;;;;;;;;;;;;29.39;35.93;93725.19;4903804;29;7216;-62
2022/08/16 13:32:07;;;;;;;;;;;;;;;29.38;36.64;93726.50;4905342;29;7258;-62
2022/08/16 13:34:52;;;;;;;;;;;;;;;29.38;36.37;93720.97;4903738;29;7267;-62